METAR / TAF

Die METAR- und TAF-Liste ist aus technischen Gründen (Verfügbarkeit, Update-Zyklen) nicht für ein Meteo-Briefing gedacht. Benutzen Sie stattdessen skybriefing der Skyguide  oder das TAMSI (MeteoSchweiz-eigene Meteo Selfbriefing-Plattform für Firmen aus der Aviatik; Anfragen über das

Kontaktformular

METAR Switzerland

METAR     LSZH 170950Z 23005KT 190V260 CAVOK 24/13 Q1015 NOSIG=
METAR     LSZH 171020Z 23005KT 160V300 CAVOK 25/12 Q1015 NOSIG=
METAR     LSGG 170950Z 03003KT 9999 FEW050 BKN300 26/10 Q1015 NOSIG=
METAR     LSGG 171020Z 06004KT 9999 FEW050 BKN300 26/11 Q1015 NOSIG=
METAR     LFSB 171030Z VRB04KT CAVOK 25/14 Q1014 NOSIG=
METAR     LSZB 170950Z VRB02KT CAVOK 24/13 Q1015 NOSIG=
METAR     LSZB 171020Z 35006KT CAVOK 25/11 Q1015 NOSIG=
METAR     LSZA 170950Z 20003KT 9999 FEW060 26/15 Q1014 NOSIG=
METAR     LSZA 171020Z 19003KT 9999 FEW060 SCT100 27/14 Q1013 NOSIG=
METAR     LSZG 170950Z 18004KT 140V240 9999 FEW060 24/13 Q1015
               NOSIG=
METAR     LSZG 171020Z VRB03KT 9999 FEW060 25/13 Q1015 NOSIG=
METAR     LSZR 170950Z 30003KT 260V340 CAVOK 21/14 Q1015 NOSIG RMK
               F=
METAR     LSZR 171020Z 36004KT CAVOK 23/15 Q1015 NOSIG RMK G=
METAR     LSGS 170950Z 23004KT 140V290 9999 FEW080 24/11 Q1014=
METAR     LSGS 171020Z 23007KT 180V290 9999 FEW080 SCT300 25/11
               Q1014=
METAR     LSGC 170950Z 25006KT 130V290 CAVOK 22/07 Q1017=
METAR     LSGC 171020Z VRB06KT CAVOK 21/06 Q1017=
METAR     LSZC 170950Z AUTO 06003KT 350V110 CAVOK 23/14 Q1015=
METAR     LSZC 171020Z AUTO 05003KT 360V150 CAVOK 24/13 Q1015=
METAR     LSZL 170950Z 25005KT 210V280 9999 FEW055 SCT095 24/14
               Q1013 RMK BLU+=
METAR     LSZL 171020Z NIL=
METAR     LSZS 170950Z 21014KT 9999 FEW065 19/06 Q1019 RMK I=
METAR     LSZS 171020Z 21014KT 120V230 9999 FEW065 19/06 Q1019 RMK
               J=
METAR     LSMA 170950Z 04008KT 360V070 9999 FEW060 23/13 Q1015 RMK
               BLU+=
METAR     LSMA 171020Z NIL=
METAR     LSMD 170950Z VRB02KT CAVOK 24/12 Q1015 RMK BLU=
METAR     LSMD 171020Z NIL=
METAR RRA LSME 171020Z AUTO VRB03KT 9999NDV NCD 25/14 Q1015 RMK=
METAR     LSME 170950Z AUTO VRB02KT 9999NDV NCD 24/10 Q1015 RMK=
METAR     LSMM 170950Z NIL=
METAR     LSMM 171020Z NIL=
METAR     LSMP 170950Z VRB02KT CAVOK 25/12 Q1015 RMK BLU=
METAR     LSMP 171020Z VRB03KT CAVOK 25/12 Q1015 RMK BLU=
Updated on Wednesday, 17 July 2019, 12:42

TAF Switzerland

TAF     LSZH 170825Z 1709/1815 VRB03KT CAVOK TX28/1715Z TN12/1804Z
             TX27/1815Z BECMG 1710/1712 30007KT 9999 FEW050 PROB40
             TEMPO 1712/1717 30010KT BECMG 1715/1717 VRB03KT CAVOK
             PROB40 1809/1815 9999 SCT070TCU=
TAF     LSGG 170825Z 1709/1815 VRB03KT CAVOK TX29/1715Z TN14/1804Z
             TX29/1815Z BECMG 1710/1712 05008KT BECMG 1718/1720
             VRB03KT=
TAF     LFSB 170500Z 1706/1806 33005KT CAVOK TEMPO 1715/1718
             28010KT=
TAF     LSGS 170825Z 1709/1718 VRB03KT 9999 FEW080 BECMG 1712/1714
             25012KT=
TAF     LSZA 170825Z 1709/1718 VRB03KT 9999 FEW070 BECMG 1710/1713
             19009KT PROB40 TEMPO 1715/1718 SCT060TCU BECMG
             1716/1718 VRB03KT=
TAF     LSZB 170825Z 1709/1718 VRB03KT CAVOK BECMG 1709/1712 9999
             FEW050 TEMPO 1711/1715 31010KT BECMG 1715/1717 CAVOK=
TAF     LSZG 170825Z 1709/1718 VRB03KT CAVOK BECMG 1709/1711 9999
             FEW060 PROB40 TEMPO 1712/1717 34010KT=
TAF     LSZL 170525Z 1706/1715 VRB03KT 9999 FEW060 TEMPO 1706/1710
             CAVOK=
TAF     LSZR 170825Z 1709/1718 VRB03KT CAVOK TEMPO 1711/1717
             29010KT 9999 FEW050=
TAF     LSGC 170825Z 1709/1718 23005KT CAVOK=
TAF     LSZC 170825Z 1709/1718 VRB03KT 9999 FEW070=
TAF     LSZS 170825Z 1709/1718 VRB03KT CAVOK TX20/1715Z BECMG
             1709/1711 21010KT 9999 SCT050 BECMG 1716/1718
             VRB03KT=
TAF     LSMA 170925Z 1710/1816 VRB03KT 9999 FEW050 BECMG 1710/1712
             05009KT BECMG 1716/1718 VRB03KT CAVOK BECMG 1809/1812
             9999 SCT060 PROB40 TEMPO 1811/1816 SHRA SCT060TCU=
TAF     LSMD 170925Z 1710/1816 VRB03KT CAVOK BECMG 1710/1712 9999
             FEW050 PROB40 TEMPO 1711/1717 30010KT BECMG 1715/1717
             CAVOK BECMG 1809/1812 9999 SCT060=
TAF     LSME 170925Z 1710/1816 VRB03KT CAVOK BECMG 1710/1712 9999
             FEW060 PROB30 TEMPO 1711/1716 30010KT BECMG 1715/1717
             CAVOK BECMG 1809/1812 9999 SCT060 PROB40 TEMPO
             1811/1816 SHRA SCT060TCU=
TAF     LSMM 170925Z 1710/1816 27007KT 9999 FEW070 BECMG 1716/1719
             CAVOK BECMG 1804/1807 9999 SCT060 PROB40 TEMPO
             1806/1816 SHRA SCT060TCU=
TAF     LSMP 170925Z 1710/1816 05005KT CAVOK BECMG 1812/1814 9999
             FEW040=
Updated on Wednesday, 17 July 2019, 12:42